createdAt,value
2022-11-24T00:00:55.016Z,0.00
2022-11-24T00:01:54.983Z,0.00
2022-11-24T00:02:55.043Z,0.00
2022-11-24T00:03:54.807Z,0.00
2022-11-24T00:04:54.734Z,0.00
2022-11-24T00:05:54.687Z,0.00
2022-11-24T00:06:54.596Z,0.00
2022-11-24T00:07:54.654Z,0.00
2022-11-24T00:08:54.460Z,0.00
2022-11-24T00:09:54.396Z,0.00
2022-11-24T00:10:54.312Z,0.00
2022-11-24T00:11:54.258Z,0.00
2022-11-24T00:12:54.172Z,0.00
2022-11-24T00:13:54.109Z,0.00
2022-11-24T00:14:54.032Z,0.00
2022-11-24T00:15:53.970Z,0.00
2022-11-24T00:16:54.004Z,0.00
2022-11-24T00:17:53.831Z,0.00
2022-11-24T00:18:53.751Z,0.00
2022-11-24T00:19:53.688Z,0.00
2022-11-24T00:20:53.613Z,0.00
2022-11-24T00:21:53.554Z,0.00
2022-11-24T00:22:53.470Z,0.00
2022-11-24T00:23:53.407Z,0.00
2022-11-24T00:24:53.333Z,0.00
2022-11-24T00:25:53.270Z,0.00
2022-11-24T00:26:53.193Z,0.00
2022-11-24T00:27:53.122Z,0.00
2022-11-24T00:28:53.052Z,0.00
2022-11-24T00:29:53.012Z,0.00
2022-11-24T00:30:52.986Z,0.00
2022-11-24T00:31:52.846Z,0.00
2022-11-24T00:32:52.773Z,0.00
2022-11-24T00:33:52.702Z,0.00
2022-11-24T00:34:52.630Z,0.00
2022-11-24T00:35:52.567Z,0.00
2022-11-24T00:36:52.487Z,0.00
2022-11-24T00:37:52.422Z,0.00
2022-11-24T00:38:52.349Z,0.00
2022-11-24T00:39:52.283Z,0.00
2022-11-24T00:40:52.214Z,0.00
2022-11-24T00:41:52.140Z,0.00
2022-11-24T00:42:52.068Z,0.00
2022-11-24T00:43:52.004Z,0.00
2022-11-24T00:44:51.945Z,0.00
2022-11-24T00:45:51.961Z,0.00
2022-11-24T00:46:51.915Z,0.00
2022-11-24T00:47:51.719Z,0.00
2022-11-24T00:48:51.657Z,0.00
2022-11-24T00:49:51.584Z,0.00
2022-11-24T00:50:51.506Z,0.00
2022-11-24T00:51:51.440Z,0.00
2022-11-24T00:52:51.376Z,0.00
2022-11-24T00:53:51.297Z,0.00
2022-11-24T00:54:51.226Z,0.00
2022-11-24T00:55:51.161Z,0.00
2022-11-24T00:56:51.094Z,0.00
2022-11-24T00:57:51.017Z,0.00
2022-11-24T00:58:50.948Z,0.00
2022-11-24T00:59:50.882Z,0.00
2022-11-24T01:00:50.807Z,0.00
2022-11-24T01:01:50.776Z,0.00
2022-11-24T01:02:50.709Z,0.00
2022-11-24T01:03:50.602Z,0.00
2022-11-24T01:04:50.536Z,0.00
2022-11-24T01:05:50.458Z,0.00
2022-11-24T01:06:50.386Z,0.00
2022-11-24T01:07:50.412Z,0.00
2022-11-24T01:08:50.243Z,0.00
2022-11-24T01:09:50.172Z,0.00
2022-11-24T01:10:50.105Z,0.00
2022-11-24T01:11:50.033Z,0.00
2022-11-24T01:12:49.981Z,0.00
2022-11-24T01:13:49.899Z,0.00
2022-11-24T01:14:49.829Z,0.00
2022-11-24T01:15:49.791Z,0.00
2022-11-24T01:16:49.689Z,0.00
2022-11-24T01:17:49.611Z,0.00
2022-11-24T01:18:49.550Z,0.00
2022-11-24T01:19:49.486Z,0.00
2022-11-24T01:20:49.400Z,0.00
2022-11-24T01:21:49.329Z,0.00
2022-11-24T01:22:49.270Z,0.00
2022-11-24T01:23:49.201Z,0.00
2022-11-24T01:24:49.122Z,0.00
2022-11-24T01:25:49.048Z,0.00
2022-11-24T01:26:48.979Z,0.00
2022-11-24T01:27:48.909Z,0.00
2022-11-24T01:28:48.838Z,0.00
2022-11-24T01:29:48.768Z,0.00
2022-11-24T01:30:48.738Z,0.00
2022-11-24T01:31:48.625Z,0.00
2022-11-24T01:32:48.558Z,0.00
2022-11-24T01:33:48.491Z,0.00
2022-11-24T01:34:48.417Z,0.00
2022-11-24T01:35:48.362Z,0.00
2022-11-24T01:36:48.282Z,0.00
2022-11-24T01:37:48.215Z,0.00
2022-11-24T01:38:48.139Z,0.00
2022-11-24T01:39:48.069Z,0.00
2022-11-24T01:40:47.996Z,0.00
2022-11-24T01:41:47.934Z,0.00
2022-11-24T01:42:47.858Z,0.00
2022-11-24T01:43:47.826Z,0.00
2022-11-24T01:44:47.718Z,0.00
2022-11-24T01:45:47.693Z,0.00
2022-11-24T01:46:47.574Z,0.00
2022-11-24T01:47:47.504Z,0.00
2022-11-24T01:48:47.442Z,0.00
2022-11-24T01:49:47.374Z,0.00
2022-11-24T01:50:47.293Z,0.00
2022-11-24T01:51:47.230Z,0.00
2022-11-24T01:52:47.157Z,0.00
2022-11-24T01:53:47.086Z,0.00
2022-11-24T01:54:47.012Z,0.00
2022-11-24T01:55:46.949Z,0.00
2022-11-24T01:56:46.882Z,0.00
2022-11-24T01:57:46.800Z,0.00
2022-11-24T01:58:46.732Z,0.00
2022-11-24T01:59:46.665Z,0.00
2022-11-24T02:00:46.594Z,0.00
2022-11-24T02:01:46.597Z,0.00
2022-11-24T02:02:46.527Z,0.00
2022-11-24T02:03:46.384Z,0.00
2022-11-24T02:04:46.313Z,0.00
2022-11-24T02:05:46.240Z,0.00
2022-11-24T02:06:46.170Z,0.00
2022-11-24T02:07:46.134Z,0.00
2022-11-24T02:08:46.034Z,0.00
2022-11-24T02:09:45.959Z,0.00
2022-11-24T02:10:45.891Z,0.00
2022-11-24T02:11:45.833Z,0.00
2022-11-24T02:12:45.749Z,0.00
2022-11-24T02:13:45.680Z,0.00
2022-11-24T02:14:45.610Z,0.00
2022-11-24T02:15:45.585Z,0.00
2022-11-24T02:16:45.471Z,0.00
2022-11-24T02:17:45.399Z,0.00
2022-11-24T02:18:45.331Z,0.00
2022-11-24T02:19:45.270Z,0.00
2022-11-24T02:20:45.189Z,0.00
2022-11-24T02:21:45.117Z,0.00
2022-11-24T02:22:45.054Z,0.00
2022-11-24T02:23:44.979Z,0.00
2022-11-24T02:24:44.913Z,0.00
2022-11-24T02:25:44.837Z,0.00
2022-11-24T02:26:44.769Z,0.00
2022-11-24T02:27:49.388Z,0.00
2022-11-24T02:28:44.631Z,0.00
2022-11-24T02:29:44.563Z,0.00
2022-11-24T02:30:44.551Z,0.00
2022-11-24T02:31:44.418Z,0.00
2022-11-24T02:32:44.348Z,0.00
2022-11-24T02:33:44.280Z,0.00
2022-11-24T02:34:44.210Z,0.00
2022-11-24T02:35:44.143Z,0.00
2022-11-24T02:36:44.068Z,0.00
2022-11-24T02:37:43.997Z,0.00
2022-11-24T02:38:43.942Z,0.00
2022-11-24T02:39:43.862Z,0.00
2022-11-24T02:40:43.796Z,0.00
2022-11-24T02:41:43.721Z,0.00
2022-11-24T02:42:43.651Z,0.00
2022-11-24T02:43:43.578Z,0.00
2022-11-24T02:44:43.512Z,0.00
2022-11-24T02:45:43.437Z,0.00
2022-11-24T02:46:43.406Z,0.00
2022-11-24T02:47:43.298Z,0.00
2022-11-24T02:48:43.231Z,0.00
2022-11-24T02:49:43.161Z,0.00
2022-11-24T02:50:43.117Z,0.00
2022-11-24T02:51:43.019Z,0.00
2022-11-24T02:52:42.983Z,0.00
2022-11-24T02:53:42.879Z,0.00
2022-11-24T02:54:42.815Z,0.00
2022-11-24T02:55:42.735Z,0.00
2022-11-24T02:56:42.669Z,0.00
2022-11-24T02:57:42.600Z,0.00
2022-11-24T02:58:42.525Z,0.00
2022-11-24T02:59:42.459Z,0.00
2022-11-24T03:00:42.400Z,0.00
2022-11-24T03:01:42.356Z,0.00
2022-11-24T03:02:42.294Z,0.00
2022-11-24T03:03:42.174Z,0.00
2022-11-24T03:04:42.105Z,0.00
2022-11-24T03:05:42.035Z,0.00
2022-11-24T03:06:41.967Z,0.00
2022-11-24T03:07:41.941Z,0.00
2022-11-24T03:08:41.839Z,0.00
2022-11-24T03:09:41.762Z,0.00
2022-11-24T03:10:41.682Z,0.00
2022-11-24T03:11:41.611Z,0.00
2022-11-24T03:12:41.550Z,0.00
2022-11-24T03:13:41.470Z,0.00
2022-11-24T03:14:41.415Z,0.00
2022-11-24T03:15:41.420Z,0.00
2022-11-24T03:16:41.266Z,0.00
2022-11-24T03:17:41.190Z,0.00
2022-11-24T03:18:41.120Z,0.00
2022-11-24T03:19:41.050Z,0.00
2022-11-24T03:20:40.979Z,0.00
2022-11-24T03:21:40.909Z,0.00
2022-11-24T03:22:40.838Z,0.00
2022-11-24T03:23:40.770Z,0.00
2022-11-24T03:24:40.697Z,0.00
2022-11-24T03:25:40.627Z,0.00
2022-11-24T03:26:40.559Z,0.00
2022-11-24T03:27:40.487Z,0.00
2022-11-24T03:28:40.417Z,0.00
2022-11-24T03:29:40.345Z,0.00
2022-11-24T03:30:40.500Z,0.00
2022-11-24T03:31:40.287Z,0.00
2022-11-24T03:32:40.137Z,0.00
2022-11-24T03:33:40.067Z,0.00
2022-11-24T03:34:39.995Z,0.00
2022-11-24T03:35:39.930Z,0.00
2022-11-24T03:36:39.854Z,0.00
2022-11-24T03:37:39.785Z,0.00
2022-11-24T03:38:39.717Z,0.00
2022-11-24T03:39:39.653Z,0.00
2022-11-24T03:40:39.575Z,0.00
2022-11-24T03:41:39.504Z,0.00
2022-11-24T03:42:39.437Z,0.00
2022-11-24T03:43:43.763Z,0.00
2022-11-24T03:44:39.293Z,0.00
2022-11-24T03:45:46.161Z,0.00
2022-11-24T03:46:39.202Z,0.00
2022-11-24T03:47:39.085Z,0.00
2022-11-24T03:48:39.014Z,0.00
2022-11-24T03:49:38.950Z,0.00
2022-11-24T03:50:38.875Z,0.00
2022-11-24T03:51:38.802Z,0.00
2022-11-24T03:52:38.742Z,0.00
2022-11-24T03:53:38.669Z,0.00
2022-11-24T03:54:38.594Z,0.00
2022-11-24T03:55:38.521Z,0.00
2022-11-24T03:56:38.469Z,0.00
2022-11-24T03:57:38.383Z,0.00
2022-11-24T03:58:38.320Z,0.00
2022-11-24T03:59:38.238Z,0.00
2022-11-24T04:00:38.172Z,0.00
2022-11-24T04:01:38.159Z,0.00
2022-11-24T04:02:38.159Z,0.00
2022-11-24T04:03:37.987Z,0.00
2022-11-24T04:04:37.892Z,0.00
2022-11-24T04:05:37.826Z,0.00
2022-11-24T04:06:37.749Z,0.00
2022-11-24T04:07:37.764Z,0.00
2022-11-24T04:08:37.612Z,0.00
2022-11-24T04:09:37.561Z,0.00
2022-11-24T04:10:37.471Z,0.00
2022-11-24T04:11:37.401Z,0.00
2022-11-24T04:12:37.330Z,0.00
2022-11-24T04:13:37.270Z,0.00
2022-11-24T04:14:37.656Z,0.00
2022-11-24T04:15:37.121Z,0.00
2022-11-24T04:16:37.118Z,0.00
2022-11-24T04:17:36.995Z,0.00
2022-11-24T04:18:36.913Z,0.00
2022-11-24T04:19:36.850Z,0.00
2022-11-24T04:20:36.769Z,0.00
2022-11-24T04:21:36.700Z,0.00
2022-11-24T04:22:36.633Z,0.00
2022-11-24T04:23:36.560Z,0.00
2022-11-24T04:24:36.584Z,0.00
2022-11-24T04:25:36.419Z,0.00
2022-11-24T04:26:36.347Z,0.00
2022-11-24T04:27:36.280Z,0.00
2022-11-24T04:28:36.209Z,0.00
2022-11-24T04:29:36.138Z,0.00
2022-11-24T04:30:36.071Z,0.00
2022-11-24T04:31:36.042Z,0.00
2022-11-24T04:32:35.936Z,0.00
2022-11-24T04:33:35.893Z,0.00
2022-11-24T04:34:36.248Z,0.00
2022-11-24T04:35:35.720Z,0.00
2022-11-24T04:36:35.651Z,0.00
2022-11-24T04:37:35.576Z,0.00
2022-11-24T04:39:24.749Z,0.00
2022-11-24T04:39:35.438Z,0.00
2022-11-24T04:40:35.379Z,0.00
2022-11-24T04:41:35.299Z,0.00
2022-11-24T04:42:35.232Z,0.00
2022-11-24T04:43:40.228Z,0.00
2022-11-24T04:44:35.482Z,0.00
2022-11-24T04:45:35.013Z,0.00
2022-11-24T04:46:35.027Z,0.00
2022-11-24T04:47:34.892Z,0.00
2022-11-24T04:48:34.800Z,0.00
2022-11-24T04:49:34.736Z,0.00
2022-11-24T04:50:34.688Z,0.00
2022-11-24T04:51:34.604Z,0.00
2022-11-24T04:52:34.519Z,0.00
2022-11-24T04:53:34.451Z,0.00
2022-11-24T04:54:34.598Z,0.00
2022-11-24T04:55:34.312Z,0.00
2022-11-24T04:56:34.240Z,0.00
2022-11-24T04:57:34.169Z,0.00
2022-11-24T04:58:34.110Z,0.00
2022-11-24T04:59:34.034Z,0.00
2022-11-24T05:00:33.958Z,0.00
2022-11-24T05:01:33.977Z,0.00
2022-11-24T05:02:33.832Z,0.00
2022-11-24T05:03:33.745Z,0.00
2022-11-24T05:04:34.161Z,0.00
2022-11-24T05:05:33.620Z,0.00
2022-11-24T05:06:33.534Z,0.00
2022-11-24T05:07:33.517Z,0.00
2022-11-24T05:08:33.420Z,0.00
2022-11-24T05:09:58.115Z,0.00
2022-11-24T05:10:33.256Z,0.00
2022-11-24T05:11:33.184Z,0.00
2022-11-24T05:12:33.113Z,0.00
2022-11-24T05:13:33.058Z,0.00
2022-11-24T05:14:33.127Z,0.00
2022-11-24T05:15:32.907Z,0.00
2022-11-24T05:16:32.933Z,0.00
2022-11-24T05:17:32.771Z,0.00
2022-11-24T05:18:32.691Z,0.00
2022-11-24T05:19:32.633Z,0.00
2022-11-24T05:20:32.563Z,0.00
2022-11-24T05:21:32.492Z,0.00
2022-11-24T05:22:32.410Z,0.00
2022-11-24T05:23:32.347Z,0.00
2022-11-24T05:24:32.676Z,0.00
2022-11-24T05:25:32.206Z,0.00
2022-11-24T05:26:32.129Z,0.00
2022-11-24T05:27:32.060Z,0.00
2022-11-24T05:28:31.995Z,0.00
2022-11-24T05:29:31.943Z,0.00
2022-11-24T05:30:31.850Z,0.00
2022-11-24T05:31:31.833Z,0.00
2022-11-24T05:32:31.711Z,0.00
2022-11-24T05:33:31.639Z,0.00
2022-11-24T05:34:31.899Z,0.00
2022-11-24T05:35:31.520Z,0.00
2022-11-24T05:36:31.451Z,0.00
2022-11-24T05:37:31.357Z,0.00
2022-11-24T05:38:31.288Z,0.00
2022-11-24T05:39:31.228Z,0.00
2022-11-24T05:40:31.148Z,0.00
2022-11-24T05:41:31.079Z,0.00
2022-11-24T05:42:31.008Z,0.00
2022-11-24T05:43:30.942Z,0.00
2022-11-24T05:44:31.009Z,0.00
2022-11-24T05:45:30.797Z,0.00
2022-11-24T05:46:30.739Z,0.00
2022-11-24T05:47:30.690Z,0.00
2022-11-24T05:48:30.584Z,0.00
2022-11-24T05:49:30.517Z,0.00
2022-11-24T05:50:30.442Z,0.00
2022-11-24T05:51:30.387Z,0.00
2022-11-24T05:52:30.332Z,0.00
2022-11-24T05:53:30.233Z,0.00
2022-11-24T05:54:30.184Z,0.00
2022-11-24T05:55:30.649Z,0.00
2022-11-24T05:56:30.021Z,0.00
2022-11-24T05:57:29.956Z,0.00
2022-11-24T05:58:29.884Z,0.00
2022-11-24T05:59:29.848Z,0.00
2022-11-24T06:00:29.739Z,0.00
2022-11-24T06:01:29.725Z,0.00
2022-11-24T06:02:29.722Z,0.00
2022-11-24T06:03:29.533Z,0.00
2022-11-24T06:04:29.518Z,0.00
2022-11-24T06:05:29.394Z,0.00
2022-11-24T06:06:29.327Z,0.00
2022-11-24T06:07:29.311Z,0.00
2022-11-24T06:08:31.234Z,0.00
2022-11-24T06:09:29.116Z,0.00
2022-11-24T06:10:29.039Z,0.00
2022-11-24T06:11:28.974Z,0.00
2022-11-24T06:12:28.898Z,0.00
2022-11-24T06:13:28.859Z,0.00
2022-11-24T06:14:28.756Z,0.00
2022-11-24T06:15:28.696Z,0.00
2022-11-24T06:16:28.669Z,0.00
2022-11-24T06:17:28.550Z,0.00
2022-11-24T06:18:28.473Z,0.00
2022-11-24T06:19:28.419Z,0.00
2022-11-24T06:20:32.494Z,0.00
2022-11-24T06:21:28.265Z,0.00
2022-11-24T06:22:28.193Z,0.00
2022-11-24T06:23:28.125Z,0.00
2022-11-24T06:24:28.065Z,0.00
2022-11-24T06:25:27.983Z,0.00
2022-11-24T06:26:27.912Z,0.00
2022-11-24T06:27:27.854Z,0.00
2022-11-24T06:28:27.778Z,0.00
2022-11-24T06:29:27.702Z,0.00
2022-11-24T06:30:27.646Z,0.00
2022-11-24T06:31:27.651Z,0.00
2022-11-24T06:32:27.497Z,0.00
2022-11-24T06:33:27.424Z,0.00
2022-11-24T06:34:27.350Z,0.00
2022-11-24T06:35:27.280Z,0.00
2022-11-24T06:36:27.210Z,0.00
2022-11-24T06:37:27.140Z,0.00
2022-11-24T06:38:27.068Z,0.00
2022-11-24T06:39:26.998Z,0.00
2022-11-24T06:40:26.941Z,0.00
2022-11-24T06:41:26.859Z,0.00
2022-11-24T06:42:26.786Z,0.00
2022-11-24T06:43:26.732Z,0.00
2022-11-24T06:44:26.650Z,0.00
2022-11-24T06:45:26.626Z,0.00
2022-11-24T06:46:26.505Z,0.00
2022-11-24T06:47:26.444Z,0.00
2022-11-24T06:48:26.397Z,0.00
2022-11-24T06:49:26.300Z,5.63
2022-11-24T06:50:32.111Z,5.63
2022-11-24T06:51:26.200Z,5.63
2022-11-24T06:52:26.084Z,5.63
2022-11-24T06:53:26.015Z,5.63
2022-11-24T06:54:25.960Z,5.63
2022-11-24T06:55:25.874Z,5.63
2022-11-24T06:56:25.800Z,5.63
2022-11-24T06:57:25.735Z,5.63
2022-11-24T06:58:25.676Z,5.63
2022-11-24T06:59:25.616Z,5.63
2022-11-24T07:00:25.520Z,5.63
2022-11-24T07:01:25.582Z,5.63
2022-11-24T07:02:25.400Z,11.25
2022-11-24T07:03:25.380Z,11.25
2022-11-24T07:04:25.240Z,11.25
2022-11-24T07:05:25.170Z,11.25
2022-11-24T07:06:25.101Z,11.25
2022-11-24T07:07:25.090Z,11.25
2022-11-24T07:08:24.958Z,11.25
2022-11-24T07:09:24.901Z,11.25
2022-11-24T07:10:24.816Z,16.88
2022-11-24T07:11:24.748Z,16.88
2022-11-24T07:12:24.677Z,16.88
2022-11-24T07:13:24.623Z,16.88
2022-11-24T07:14:24.538Z,16.88
2022-11-24T07:15:24.486Z,16.88
2022-11-24T07:16:24.463Z,16.88
2022-11-24T07:17:24.333Z,22.50
2022-11-24T07:18:24.256Z,22.50
2022-11-24T07:19:25.197Z,22.50
2022-11-24T07:20:24.115Z,22.50
2022-11-24T07:21:24.060Z,22.50
2022-11-24T07:22:23.976Z,16.88
2022-11-24T07:23:23.906Z,16.88
2022-11-24T07:24:23.833Z,22.50
2022-11-24T07:25:23.777Z,22.50
2022-11-24T07:26:23.705Z,22.50
2022-11-24T07:27:23.628Z,22.50
2022-11-24T07:28:23.554Z,22.50
2022-11-24T07:29:23.490Z,22.50
2022-11-24T07:30:23.412Z,22.50
2022-11-24T07:31:23.389Z,22.50
2022-11-24T07:32:23.332Z,22.50
2022-11-24T07:33:23.209Z,16.88
2022-11-24T07:34:23.132Z,16.88
2022-11-24T07:35:23.062Z,16.88
2022-11-24T07:36:22.997Z,16.88
2022-11-24T07:37:28.087Z,16.88
2022-11-24T07:38:22.851Z,16.88
2022-11-24T07:39:22.784Z,16.88
2022-11-24T07:40:22.720Z,16.88
2022-11-24T07:41:22.651Z,16.88
2022-11-24T07:42:22.586Z,22.50
2022-11-24T07:43:22.507Z,22.50
2022-11-24T07:44:22.429Z,22.50
2022-11-24T07:45:22.371Z,22.50
2022-11-24T07:46:22.340Z,28.13
2022-11-24T07:47:22.278Z,28.13
2022-11-24T07:48:22.150Z,28.13
2022-11-24T07:49:22.079Z,28.13
2022-11-24T07:50:22.012Z,28.13
2022-11-24T07:51:21.947Z,28.13
2022-11-24T07:52:21.869Z,28.13
2022-11-24T07:53:21.801Z,28.13
2022-11-24T07:54:21.732Z,28.13
2022-11-24T07:55:21.669Z,28.13
2022-11-24T07:56:21.591Z,28.13
2022-11-24T07:57:21.519Z,28.13
2022-11-24T07:58:21.454Z,22.50
2022-11-24T07:59:21.377Z,28.13
2022-11-24T08:00:21.308Z,28.13
2022-11-24T08:01:21.344Z,28.13
2022-11-24T08:02:21.171Z,28.13
2022-11-24T08:03:21.162Z,28.13
2022-11-24T08:04:21.026Z,28.13
2022-11-24T08:05:20.959Z,28.13
2022-11-24T08:06:26.473Z,28.13
2022-11-24T08:07:20.839Z,28.13
2022-11-24T08:08:20.748Z,28.13
2022-11-24T08:09:20.680Z,28.13
2022-11-24T08:10:20.628Z,28.13
2022-11-24T08:11:20.539Z,28.13
2022-11-24T08:12:20.477Z,28.13
2022-11-24T08:13:20.401Z,28.13
2022-11-24T08:14:20.334Z,28.13
2022-11-24T08:15:20.258Z,28.13
2022-11-24T08:16:20.271Z,33.75
2022-11-24T08:17:20.119Z,33.75
2022-11-24T08:18:20.062Z,33.75
2022-11-24T08:19:20.049Z,39.38
2022-11-24T08:20:19.911Z,39.38
2022-11-24T08:21:19.840Z,39.38
2022-11-24T08:22:19.793Z,39.38
2022-11-24T08:23:19.697Z,39.38
2022-11-24T08:24:19.634Z,39.38
2022-11-24T08:25:19.555Z,39.38
2022-11-24T08:26:19.490Z,45.00
2022-11-24T08:27:19.416Z,45.00
2022-11-24T08:28:19.369Z,45.00
2022-11-24T08:29:19.281Z,45.00
2022-11-24T08:30:19.211Z,45.00
2022-11-24T08:31:19.242Z,45.00
2022-11-24T08:32:22.478Z,45.00
2022-11-24T08:33:19.001Z,45.00
2022-11-24T08:34:18.945Z,45.00
2022-11-24T08:35:18.862Z,45.00
2022-11-24T08:36:18.787Z,45.00
2022-11-24T08:37:18.721Z,45.00
2022-11-24T08:38:18.648Z,45.00
2022-11-24T08:39:18.584Z,45.00
2022-11-24T08:40:18.525Z,45.00
2022-11-24T08:41:18.437Z,45.00
2022-11-24T08:42:18.371Z,45.00
2022-11-24T08:43:18.300Z,45.00
2022-11-24T08:44:18.251Z,45.00
2022-11-24T08:45:21.257Z,50.63
2022-11-24T08:46:18.159Z,50.63
2022-11-24T08:47:18.021Z,50.63
2022-11-24T08:48:17.955Z,50.63
2022-11-24T08:49:17.882Z,56.25
2022-11-24T08:50:17.814Z,56.25
2022-11-24T08:51:17.749Z,56.25
2022-11-24T08:52:17.669Z,61.88
2022-11-24T08:53:17.599Z,67.50
2022-11-24T08:54:17.531Z,67.50
2022-11-24T08:55:17.461Z,67.50
2022-11-24T08:56:17.391Z,73.13
2022-11-24T08:57:21.827Z,73.13
2022-11-24T08:58:17.252Z,73.13
2022-11-24T08:59:17.239Z,78.75
2022-11-24T09:00:17.111Z,78.75
2022-11-24T09:01:17.093Z,78.75
2022-11-24T09:02:16.984Z,84.38
2022-11-24T09:03:16.901Z,84.38
2022-11-24T09:04:16.900Z,84.38
2022-11-24T09:05:43.594Z,84.38
2022-11-24T09:06:16.714Z,84.38
2022-11-24T09:07:16.681Z,84.38
2022-11-24T09:08:16.556Z,84.38
2022-11-24T09:09:16.495Z,90.00
2022-11-24T09:10:16.413Z,90.00
2022-11-24T09:11:16.344Z,90.00
2022-11-24T09:12:16.274Z,90.00
2022-11-24T09:13:16.215Z,84.38
2022-11-24T09:14:16.138Z,84.38
2022-11-24T09:15:16.065Z,84.38
2022-11-24T09:16:16.079Z,84.38
2022-11-24T09:17:15.927Z,84.38
2022-11-24T09:18:15.867Z,84.38
2022-11-24T09:19:15.821Z,84.38
2022-11-24T09:20:15.767Z,84.38
2022-11-24T09:21:15.700Z,90.00
2022-11-24T09:22:15.612Z,95.63
2022-11-24T09:23:15.837Z,95.63
2022-11-24T09:24:15.472Z,101.25
2022-11-24T09:25:15.452Z,106.88
2022-11-24T09:26:15.316Z,106.88
2022-11-24T09:27:15.333Z,112.50
2022-11-24T09:28:15.388Z,118.13
2022-11-24T09:29:15.096Z,129.38
2022-11-24T09:30:15.268Z,140.63
2022-11-24T09:31:15.017Z,146.25
2022-11-24T09:32:14.888Z,151.88
2022-11-24T09:33:14.847Z,151.88
2022-11-24T09:34:14.760Z,151.88
2022-11-24T09:35:14.702Z,157.50
2022-11-24T09:36:14.679Z,163.13
2022-11-24T09:37:14.571Z,163.13
2022-11-24T09:38:14.524Z,163.13
2022-11-24T09:39:14.443Z,163.13
2022-11-24T09:40:14.356Z,157.50
2022-11-24T09:41:14.280Z,163.13
2022-11-24T09:42:14.265Z,157.50
2022-11-24T09:43:14.135Z,151.88
2022-11-24T09:44:14.092Z,151.88
2022-11-24T09:45:14.029Z,146.25
2022-11-24T09:46:14.218Z,146.25
2022-11-24T09:47:13.995Z,140.63
2022-11-24T09:48:13.792Z,140.63
2022-11-24T09:49:13.778Z,140.63
2022-11-24T09:50:13.693Z,146.25
2022-11-24T09:51:13.601Z,146.25
2022-11-24T09:52:13.520Z,151.88
2022-11-24T09:53:13.455Z,151.88
2022-11-24T09:54:13.376Z,151.88
2022-11-24T09:55:13.312Z,146.25
2022-11-24T09:56:13.377Z,146.25
2022-11-24T09:57:13.213Z,146.25
2022-11-24T09:58:13.180Z,151.88
2022-11-24T09:59:13.028Z,163.13
2022-11-24T10:00:12.984Z,163.13
2022-11-24T10:01:12.934Z,163.13
2022-11-24T10:02:12.850Z,168.75
2022-11-24T10:03:12.776Z,174.38
2022-11-24T10:04:12.791Z,185.63
2022-11-24T10:05:12.696Z,202.50
2022-11-24T10:06:12.652Z,213.75
2022-11-24T10:07:12.567Z,230.63
2022-11-24T10:08:12.479Z,264.38
2022-11-24T10:09:12.375Z,275.63
2022-11-24T10:10:12.286Z,270.00
2022-11-24T10:11:12.216Z,281.25
2022-11-24T10:12:12.224Z,371.25
2022-11-24T10:13:12.093Z,455.63
2022-11-24T10:14:12.010Z,511.88
2022-11-24T10:15:11.951Z,613.13
2022-11-24T10:16:11.993Z,646.88
2022-11-24T10:17:11.832Z,534.38
2022-11-24T10:18:16.462Z,534.38
2022-11-24T10:19:11.667Z,500.63
2022-11-24T10:20:11.766Z,562.50
2022-11-24T10:21:11.581Z,703.13
2022-11-24T10:22:11.486Z,438.75
2022-11-24T10:23:11.452Z,753.75
2022-11-24T10:24:11.652Z,838.13
2022-11-24T10:25:11.364Z,877.50
2022-11-24T10:26:11.610Z,849.38
2022-11-24T10:27:11.296Z,753.75
2022-11-24T10:28:11.320Z,303.75
2022-11-24T10:29:11.095Z,253.13
2022-11-24T10:30:10.977Z,236.25
2022-11-24T10:31:10.958Z,225.00
2022-11-24T10:32:10.836Z,230.63
2022-11-24T10:33:10.787Z,219.38
2022-11-24T10:34:10.782Z,219.38
2022-11-24T10:35:10.701Z,219.38
2022-11-24T10:36:10.593Z,213.75
2022-11-24T10:37:10.549Z,213.75
2022-11-24T10:38:10.615Z,219.38
2022-11-24T10:39:10.374Z,230.63
2022-11-24T10:40:21.309Z,253.13
2022-11-24T10:41:10.371Z,275.63
2022-11-24T10:42:10.257Z,331.88
2022-11-24T10:43:10.295Z,405.00
2022-11-24T10:44:10.048Z,393.75
2022-11-24T10:45:09.995Z,326.25
2022-11-24T10:46:10.040Z,331.88
2022-11-24T10:47:09.904Z,365.63
2022-11-24T10:48:09.881Z,337.50
2022-11-24T10:49:09.729Z,309.38
2022-11-24T10:50:09.674Z,343.13
2022-11-24T10:51:09.685Z,399.38
2022-11-24T10:52:09.669Z,393.75
2022-11-24T10:53:09.497Z,393.75
2022-11-24T10:54:09.405Z,326.25
2022-11-24T10:55:09.373Z,292.50
2022-11-24T10:56:09.231Z,309.38
2022-11-24T10:57:09.187Z,326.25
2022-11-24T10:58:09.254Z,360.00
2022-11-24T10:59:09.079Z,376.88
2022-11-24T11:00:09.043Z,343.13
2022-11-24T11:01:09.064Z,427.50
2022-11-24T11:02:08.974Z,472.50
2022-11-24T11:03:08.888Z,405.00
2022-11-24T11:04:08.780Z,388.13
2022-11-24T11:05:08.750Z,348.75
2022-11-24T11:06:08.793Z,388.13
2022-11-24T11:07:08.584Z,376.88
2022-11-24T11:08:08.471Z,337.50
2022-11-24T11:09:08.480Z,315.00
2022-11-24T11:10:08.352Z,281.25
2022-11-24T11:11:08.361Z,264.38
2022-11-24T11:12:35.812Z,241.88
2022-11-24T11:13:08.197Z,236.25
2022-11-24T11:14:08.206Z,230.63
2022-11-24T11:15:08.007Z,213.75
2022-11-24T11:16:08.613Z,191.25
2022-11-24T11:17:07.883Z,174.38
2022-11-24T11:18:08.091Z,163.13
2022-11-24T11:19:26.014Z,157.50
2022-11-24T11:20:08.050Z,157.50
2022-11-24T11:21:07.669Z,157.50
2022-11-24T11:22:07.637Z,157.50
2022-11-24T11:23:07.513Z,157.50
2022-11-24T11:24:07.489Z,157.50
2022-11-24T11:25:07.374Z,157.50
2022-11-24T11:26:07.304Z,157.50
2022-11-24T11:27:07.255Z,157.50
2022-11-24T11:28:10.615Z,157.50
2022-11-24T11:31:18.067Z,151.88
2022-11-24T11:34:10.901Z,157.50
2022-11-24T11:35:06.798Z,163.13
2022-11-24T11:36:06.671Z,146.25
2022-11-24T11:37:06.575Z,135.00
2022-11-24T11:38:06.529Z,123.75
2022-11-24T11:39:06.516Z,118.13
2022-11-24T11:40:06.399Z,118.13
2022-11-24T11:41:06.312Z,118.13
2022-11-24T11:42:06.243Z,123.75
2022-11-24T11:43:06.220Z,118.13
2022-11-24T11:44:06.088Z,112.50
2022-11-24T11:45:06.026Z,106.88
2022-11-24T11:46:06.081Z,106.88
2022-11-24T11:47:05.936Z,101.25
2022-11-24T11:48:05.853Z,95.63
2022-11-24T11:49:05.848Z,95.63
2022-11-24T11:50:05.752Z,90.00
2022-11-24T11:51:34.552Z,90.00
2022-11-24T11:52:05.559Z,90.00
2022-11-24T11:53:05.505Z,90.00
2022-11-24T11:54:05.779Z,95.63
2022-11-24T11:55:05.411Z,95.63
2022-11-24T11:56:05.313Z,112.50
2022-11-24T11:57:05.411Z,135.00
2022-11-24T11:58:05.137Z,157.50
2022-11-24T11:59:05.078Z,196.88
2022-11-24T12:00:05.026Z,174.38
2022-11-24T12:01:05.040Z,168.75
2022-11-24T12:02:04.887Z,163.13
2022-11-24T12:03:05.025Z,163.13
2022-11-24T12:04:04.933Z,157.50
2022-11-24T12:05:04.725Z,151.88
2022-11-24T12:06:04.645Z,146.25
2022-11-24T12:07:04.588Z,157.50
2022-11-24T12:08:09.399Z,163.13
2022-11-24T12:09:19.872Z,174.38
2022-11-24T12:10:04.359Z,185.63
2022-11-24T12:11:04.289Z,191.25
2022-11-24T12:12:04.208Z,191.25
2022-11-24T12:13:04.180Z,185.63
2022-11-24T12:14:04.161Z,180.00
2022-11-24T12:15:10.266Z,168.75
2022-11-24T12:16:04.028Z,157.50
2022-11-24T12:17:03.863Z,146.25
2022-11-24T12:18:03.814Z,140.63
2022-11-24T12:19:03.799Z,135.00
2022-11-24T12:20:03.680Z,140.63
2022-11-24T12:21:03.610Z,146.25
2022-11-24T12:22:03.541Z,146.25
2022-11-24T12:23:03.463Z,146.25
2022-11-24T12:24:03.447Z,146.25
2022-11-24T12:25:03.420Z,135.00
2022-11-24T12:26:03.274Z,135.00
2022-11-24T12:27:03.245Z,135.00
2022-11-24T12:28:03.162Z,129.38
2022-11-24T12:29:03.063Z,135.00
2022-11-24T12:30:03.023Z,135.00
2022-11-24T12:31:03.061Z,140.63
2022-11-24T12:32:02.863Z,140.63
2022-11-24T12:33:02.828Z,135.00
2022-11-24T12:34:02.757Z,123.75
2022-11-24T12:35:02.679Z,118.13
2022-11-24T12:36:02.845Z,118.13
2022-11-24T12:37:02.542Z,112.50
2022-11-24T12:38:02.474Z,106.88
2022-11-24T12:39:02.406Z,95.63
2022-11-24T12:40:02.373Z,95.63
2022-11-24T12:41:25.464Z,90.00
2022-11-24T12:42:02.209Z,84.38
2022-11-24T12:43:02.184Z,78.75
2022-11-24T12:44:02.061Z,84.38
2022-11-24T12:45:02.012Z,84.38
2022-11-24T12:46:01.991Z,84.38
2022-11-24T12:47:01.931Z,90.00
2022-11-24T12:48:01.895Z,90.00
2022-11-24T12:49:01.768Z,84.38
2022-11-24T12:50:01.737Z,84.38
2022-11-24T12:51:02.791Z,84.38
2022-11-24T12:52:01.571Z,84.38
2022-11-24T12:53:01.481Z,78.75
2022-11-24T12:54:01.518Z,84.38
2022-11-24T12:55:01.369Z,84.38
2022-11-24T12:56:01.295Z,84.38
2022-11-24T12:57:01.278Z,84.38
2022-11-24T12:58:03.943Z,90.00
2022-11-24T12:59:01.111Z,90.00
2022-11-24T13:00:01.022Z,90.00
2022-11-24T13:01:00.961Z,95.63
2022-11-24T13:02:01.004Z,101.25
2022-11-24T13:03:00.953Z,101.25
2022-11-24T13:04:00.748Z,101.25